createdAt,value
2022-08-04T00:02:11.259Z,56.48
2022-08-04T00:07:44.775Z,56.84
2022-08-04T00:12:51.264Z,58.58
2022-08-04T00:18:04.978Z,60.10
2022-08-04T00:23:09.759Z,61.31
2022-08-04T00:28:13.973Z,66.49
2022-08-04T00:33:21.072Z,62.80
2022-08-04T00:38:25.850Z,56.85
2022-08-04T00:44:04.403Z,57.13
2022-08-04T00:49:28.342Z,58.98
2022-08-04T00:54:38.512Z,60.50
2022-08-04T01:00:02.959Z,61.79
2022-08-04T01:05:37.970Z,67.05
2022-08-04T01:10:59.151Z,62.03
2022-08-04T01:16:08.294Z,56.38
2022-08-04T01:21:29.507Z,56.92
2022-08-04T01:26:42.512Z,58.72
2022-08-04T01:31:58.409Z,60.25
2022-08-04T01:37:56.075Z,61.55
2022-08-04T01:43:02.221Z,67.25
2022-08-04T01:48:07.947Z,62.32
2022-08-04T01:53:11.542Z,56.65
2022-08-04T01:58:18.297Z,56.72
2022-08-04T02:03:21.316Z,58.55
2022-08-04T02:09:08.150Z,60.10
2022-08-04T02:14:42.986Z,60.86
2022-08-04T02:19:48.729Z,66.77
2022-08-04T02:25:05.231Z,62.57
2022-08-04T02:30:09.161Z,57.01
2022-08-04T02:35:20.915Z,57.31
2022-08-04T02:40:26.857Z,59.04
2022-08-04T02:45:32.259Z,60.33
2022-08-04T02:50:37.516Z,61.72
2022-08-04T02:55:50.448Z,67.00
2022-08-04T03:00:54.515Z,63.24
2022-08-04T03:06:41.784Z,57.70
2022-08-04T03:12:23.041Z,56.67
2022-08-04T03:17:53.814Z,58.60
2022-08-04T03:23:50.828Z,60.21
2022-08-04T03:29:36.418Z,61.47
2022-08-04T03:35:47.514Z,67.75
2022-08-04T03:41:50.857Z,62.03
2022-08-04T03:46:46.774Z,56.17
2022-08-04T03:52:27.416Z,57.46
2022-08-04T03:58:30.637Z,59.32
2022-08-04T04:04:09.574Z,60.51
2022-08-04T04:09:58.001Z,61.77
2022-08-04T04:15:31.504Z,67.79
2022-08-04T04:21:14.260Z,62.10
2022-08-04T04:26:35.038Z,55.88
2022-08-04T04:32:03.091Z,56.47
2022-08-04T04:37:51.250Z,58.29
2022-08-04T04:43:11.947Z,60.27
2022-08-04T04:48:48.758Z,62.04
2022-08-04T04:54:00.594Z,67.56
2022-08-04T04:59:10.246Z,62.03
2022-08-04T05:04:35.035Z,56.55
2022-08-04T05:10:34.687Z,57.21
2022-08-04T05:15:43.517Z,59.39
2022-08-04T05:20:57.456Z,61.01
2022-08-04T05:26:09.023Z,66.33
2022-08-04T05:31:19.177Z,61.88
2022-08-04T05:36:41.091Z,56.16
2022-08-04T05:41:48.134Z,57.90
2022-08-04T05:46:59.335Z,58.62
2022-08-04T05:52:04.827Z,60.29
2022-08-04T05:57:10.028Z,61.20
2022-08-04T06:02:18.011Z,65.26
2022-08-04T06:07:21.719Z,59.60
2022-08-04T06:12:36.441Z,53.67
2022-08-04T06:18:33.814Z,54.88
2022-08-04T06:23:15.243Z,57.34
2022-08-04T06:28:20.132Z,58.29
2022-08-04T06:33:54.252Z,59.90
2022-08-04T06:39:01.417Z,60.36
2022-08-04T06:44:10.180Z,62.75
2022-08-04T06:49:14.157Z,57.42
2022-08-04T06:54:17.240Z,55.61
2022-08-04T06:59:24.445Z,57.09
2022-08-04T07:04:28.379Z,58.16
2022-08-04T07:09:32.004Z,58.51
2022-08-04T07:14:36.679Z,58.29
2022-08-04T07:19:39.709Z,59.00
2022-08-04T07:24:43.313Z,58.84
2022-08-04T07:29:48.418Z,58.79
2022-08-04T07:34:52.748Z,58.95
2022-08-04T07:39:56.420Z,58.71
2022-08-04T07:44:59.842Z,58.56
2022-08-04T07:50:04.571Z,58.54
2022-08-04T07:55:08.482Z,58.29
2022-08-04T08:00:15.199Z,57.61
2022-08-04T08:05:20.629Z,57.40
2022-08-04T08:10:25.563Z,57.42
2022-08-04T08:15:29.097Z,56.97
2022-08-04T08:20:35.593Z,57.36
2022-08-04T08:25:38.993Z,56.29
2022-08-04T08:30:41.998Z,54.42
2022-08-04T08:36:03.743Z,55.71
2022-08-04T08:41:18.971Z,54.13
2022-08-04T08:46:49.889Z,54.21
2022-08-04T08:52:05.112Z,54.79
2022-08-04T08:57:59.550Z,54.94
2022-08-04T09:03:34.412Z,53.70
2022-08-04T09:08:46.212Z,53.65
2022-08-04T09:13:57.339Z,53.14
2022-08-04T09:19:38.766Z,52.54
2022-08-04T09:25:09.079Z,52.81
2022-08-04T09:30:17.705Z,52.97
2022-08-04T09:35:49.173Z,53.19
2022-08-04T09:41:40.107Z,53.60
2022-08-04T09:47:00.194Z,53.87
2022-08-04T09:52:31.280Z,53.38
2022-08-04T09:57:53.645Z,52.42
2022-08-04T10:03:01.215Z,50.42
2022-08-04T10:08:18.795Z,50.46
2022-08-04T10:14:27.065Z,52.36
2022-08-04T10:19:37.710Z,50.06
2022-08-04T10:25:37.444Z,50.82
2022-08-04T10:31:01.651Z,48.97
2022-08-04T10:36:13.441Z,50.64
2022-08-04T10:41:42.646Z,51.43
2022-08-04T10:46:55.956Z,51.69
2022-08-04T10:52:17.077Z,50.73
2022-08-04T10:57:33.251Z,48.93
2022-08-04T11:02:45.191Z,47.60
2022-08-04T11:07:54.090Z,47.69
2022-08-04T11:13:29.819Z,48.74
2022-08-04T11:19:09.062Z,49.20
2022-08-04T11:24:34.091Z,49.50
2022-08-04T11:30:07.489Z,49.08
2022-08-04T11:35:26.595Z,48.67
2022-08-04T11:41:02.865Z,48.35
2022-08-04T11:46:18.624Z,47.78
2022-08-04T11:51:23.590Z,46.67
2022-08-04T11:56:37.194Z,47.65
2022-08-04T12:01:44.011Z,47.93
2022-08-04T12:13:21.511Z,47.55
2022-08-04T12:18:43.359Z,47.57
2022-08-04T12:23:49.838Z,47.89
2022-08-04T12:29:11.504Z,48.50
2022-08-04T12:34:31.116Z,47.11
2022-08-04T12:40:21.313Z,47.05
2022-08-04T12:45:09.274Z,45.58
2022-08-04T12:50:16.870Z,45.81
2022-08-04T12:55:24.364Z,46.13
2022-08-04T13:00:40.015Z,45.73
2022-08-04T13:05:45.819Z,45.15
2022-08-04T13:10:53.924Z,45.93
2022-08-04T13:15:59.841Z,45.28
2022-08-04T13:22:02.312Z,45.42
2022-08-04T13:27:16.422Z,45.76
2022-08-04T13:32:23.875Z,46.31
2022-08-04T13:37:37.328Z,45.31
2022-08-04T13:42:46.706Z,45.49
2022-08-04T13:47:58.434Z,44.97
2022-08-04T13:53:21.998Z,45.03
2022-08-04T13:58:26.725Z,45.33
2022-08-04T14:03:53.367Z,44.52
2022-08-04T14:09:19.957Z,44.33
2022-08-04T14:14:28.479Z,45.65
2022-08-04T14:19:46.669Z,45.32
2022-08-04T14:25:04.501Z,45.38
2022-08-04T14:30:35.480Z,44.48
2022-08-04T14:35:50.195Z,43.43
2022-08-04T14:41:00.076Z,42.96
2022-08-04T14:46:06.196Z,42.49
2022-08-04T14:51:17.007Z,41.57
2022-08-04T14:56:46.917Z,42.88
2022-08-04T15:02:00.351Z,42.91
2022-08-04T15:07:05.494Z,42.55
2022-08-04T15:12:10.642Z,43.24
2022-08-04T15:17:29.362Z,42.38
2022-08-04T15:22:33.864Z,42.67
2022-08-04T15:27:40.733Z,43.34
2022-08-04T15:32:52.278Z,43.75
2022-08-04T15:37:58.824Z,43.12
2022-08-04T15:43:16.505Z,43.45
2022-08-04T15:48:20.233Z,43.16
2022-08-04T15:53:23.749Z,42.50
2022-08-04T15:58:55.290Z,42.66
2022-08-04T16:04:01.429Z,43.31
2022-08-04T16:09:05.565Z,43.13
2022-08-04T16:14:10.982Z,43.32
2022-08-04T16:20:01.994Z,43.68
2022-08-04T16:25:07.319Z,43.68
2022-08-04T16:30:15.106Z,44.20
2022-08-04T16:35:28.678Z,44.77
2022-08-04T16:40:39.058Z,45.03
2022-08-04T16:46:04.351Z,45.14
2022-08-04T16:51:10.019Z,45.48
2022-08-04T16:56:17.571Z,45.60
2022-08-04T17:01:33.034Z,46.07
2022-08-04T17:06:44.722Z,46.55
2022-08-04T17:11:48.740Z,47.32
2022-08-04T17:16:53.359Z,48.02
2022-08-04T17:22:07.449Z,48.29
2022-08-04T17:28:20.169Z,48.56
2022-08-04T17:32:36.594Z,49.20
2022-08-04T17:37:53.236Z,49.81
2022-08-04T17:44:03.180Z,50.29
2022-08-04T17:48:30.899Z,50.73
2022-08-04T17:54:02.951Z,51.17
2022-08-04T17:59:55.664Z,51.40
2022-08-04T18:05:07.661Z,52.25
2022-08-04T18:10:33.095Z,52.74
2022-08-04T18:15:40.771Z,53.33
2022-08-04T18:20:50.343Z,54.57
2022-08-04T18:25:53.533Z,54.81
2022-08-04T18:30:56.651Z,54.66
2022-08-04T18:36:37.091Z,54.74
2022-08-04T18:41:23.751Z,55.03
2022-08-04T18:46:27.264Z,56.47
2022-08-04T18:51:30.762Z,57.45
2022-08-04T18:56:37.475Z,57.97
2022-08-04T19:02:12.818Z,57.89
2022-08-04T19:07:24.541Z,57.63
2022-08-04T19:12:29.348Z,58.15
2022-08-04T19:17:53.219Z,59.10
2022-08-04T19:24:11.301Z,59.99
2022-08-04T19:28:21.705Z,60.65
2022-08-04T19:33:25.501Z,61.06
2022-08-04T19:38:35.079Z,61.62
2022-08-04T19:43:43.739Z,62.17
2022-08-04T19:49:00.395Z,67.06
2022-08-04T19:54:14.894Z,63.91
2022-08-04T19:59:20.381Z,56.95
2022-08-04T20:04:25.807Z,56.34
2022-08-04T20:09:29.025Z,57.69
2022-08-04T20:14:40.794Z,59.07
2022-08-04T20:19:51.416Z,60.24
2022-08-04T20:25:10.924Z,60.96
2022-08-04T20:30:22.062Z,61.81
2022-08-04T20:35:26.687Z,66.72
2022-08-04T20:40:30.666Z,63.85
2022-08-04T20:45:56.823Z,58.11
2022-08-04T20:50:57.025Z,55.87
2022-08-04T20:56:00.534Z,57.30
2022-08-04T21:01:03.744Z,58.67
2022-08-04T21:06:08.984Z,59.80
2022-08-04T21:11:13.463Z,60.83
2022-08-04T21:16:54.989Z,61.70
2022-08-04T21:21:41.421Z,66.97
2022-08-04T21:26:54.133Z,62.86
2022-08-04T21:32:00.113Z,56.72
2022-08-04T21:37:04.238Z,56.81
2022-08-04T21:42:29.011Z,58.39
2022-08-04T21:47:46.240Z,59.62
2022-08-04T21:52:52.208Z,60.82
2022-08-04T21:57:55.730Z,61.80
2022-08-04T22:03:03.484Z,66.88
2022-08-04T22:08:06.544Z,63.25
2022-08-04T22:13:23.010Z,57.63
2022-08-04T22:18:27.876Z,56.37
2022-08-04T22:23:45.189Z,58.06
2022-08-04T22:28:51.133Z,59.44
2022-08-04T22:33:56.148Z,60.79
2022-08-04T22:39:06.915Z,61.87
2022-08-04T22:44:15.154Z,67.15
2022-08-04T22:49:19.046Z,63.43
2022-08-04T22:54:29.597Z,58.21
2022-08-04T22:59:32.931Z,56.25
2022-08-04T23:04:36.468Z,57.86
2022-08-04T23:09:49.926Z,59.45
2022-08-04T23:14:58.000Z,60.74
2022-08-04T23:20:01.302Z,61.98
2022-08-04T23:25:04.931Z,67.23
2022-08-04T23:30:08.572Z,63.77
2022-08-04T23:35:11.840Z,58.44
2022-08-04T23:40:32.339Z,56.10
2022-08-04T23:46:04.593Z,57.80
2022-08-04T23:51:14.318Z,59.44
2022-08-04T23:56:19.587Z,60.84
